Time;durP1;ratioP1;P1;durP2;ratioP2;P2;SDS_P1;SDS_P2;PMS_P1;PMS_P2;Temp;Humidity;BMP_temperature;BMP_pressure;BME280_temperature;BME280_humidity;BME280_pressure;Samples;Min_cycle;Max_cycle;Signal;HPM_P1;HPM_P2
2023/01/22 00:02:23;;;;;;;0.55;0.55;;;;;;;17.67;51.72;102730.53;5046137;28;20426;-81
2023/01/22 00:04:49;;;;;;;0.60;0.60;;;;;;;17.68;51.70;102726.81;5030356;28;20017;-81
2023/01/22 00:07:15;;;;;;;0.90;0.57;;;;;;;17.68;51.62;102726.81;5014025;28;20430;-81
2023/01/22 00:09:41;;;;;;;0.50;0.50;;;;;;;17.67;51.74;102727.00;5029178;28;20033;-80
2023/01/22 00:12:07;;;;;;;2.17;0.70;;;;;;;17.70;51.73;102732.88;5048065;28;20153;-80
2023/01/22 00:14:36;;;;;;;0.70;0.57;;;;;;;17.65;51.84;102728.00;5029573;28;20034;-80
2023/01/22 00:17:01;;;;;;;0.65;0.65;;;;;;;17.67;51.74;102730.53;5027837;28;20375;-81
2023/01/22 00:19:27;;;;;;;1.27;0.50;;;;;;;17.68;51.80;102734.94;5028041;28;20026;-82
2023/01/22 00:21:53;;;;;;;0.77;0.70;;;;;;;17.66;51.79;102745.09;5027841;28;20031;-81
2023/01/22 00:24:18;;;;;;;0.70;0.70;;;;;;;17.67;51.72;102751.31;5028007;28;20033;-82
2023/01/22 00:26:44;;;;;;;0.55;0.50;;;;;;;17.69;51.63;102744.69;5029093;28;20045;-81
2023/01/22 00:29:10;;;;;;;0.60;0.57;;;;;;;17.67;51.86;102746.75;5029606;28;20123;-81
2023/01/22 00:31:36;;;;;;;0.60;0.50;;;;;;;17.68;51.37;102740.34;5028814;28;20025;-81
2023/01/22 00:34:02;;;;;;;0.50;0.50;;;;;;;17.68;51.74;102743.03;5029141;28;20462;-81
2023/01/22 00:36:27;;;;;;;1.00;0.70;;;;;;;17.68;51.58;102748.44;5012120;28;20114;-80
2023/01/22 00:38:53;;;;;;;0.45;0.45;;;;;;;17.71;51.56;102752.63;5029099;28;20025;-80
2023/01/22 00:41:22;;;;;;;0.40;0.40;;;;;;;17.68;51.86;102753.00;5026718;28;20063;-80
2023/01/22 00:43:48;;;;;;;0.60;0.60;;;;;;;17.68;51.62;102753.84;5011452;28;20026;-81
2023/01/22 00:46:15;;;;;;;0.40;0.40;;;;;;;17.69;51.87;102754.69;4995408;28;20406;-80
2023/01/22 00:48:41;;;;;;;0.55;0.55;;;;;;;17.70;51.64;102756.38;4994994;28;20029;-80
2023/01/22 00:51:11;;;;;;;0.50;0.50;;;;;;;17.69;51.64;102755.53;5028932;28;20053;-81
2023/01/22 00:53:39;;;;;;;0.60;0.50;;;;;;;17.68;51.83;102753.84;5029285;28;20071;-80
2023/01/22 00:56:06;;;;;;;0.40;0.40;;;;;;;17.69;51.49;102752.81;5011520;28;20028;-81
2023/01/22 00:58:31;;;;;;;0.50;0.50;;;;;;;17.68;51.60;102753.00;5028594;28;20030;-80
2023/01/22 01:00:57;;;;;;;0.50;0.50;;;;;;;17.70;51.73;102759.09;5033347;28;20464;-81
2023/01/22 01:03:29;;;;;;;0.30;0.30;;;;;;;17.72;51.61;102765.16;5034635;28;20085;-80
2023/01/22 01:05:56;;;;;;;0.40;0.40;;;;;;;17.69;51.63;102755.53;5031873;28;20026;-80
2023/01/22 01:08:22;;;;;;;1.23;0.40;;;;;;;17.71;51.69;102766.16;5050266;28;20040;-80
2023/01/22 01:10:47;;;;;;;0.43;0.43;;;;;;;17.69;51.71;102755.53;5050285;28;20021;-80
2023/01/22 01:13:13;;;;;;;0.38;0.38;;;;;;;17.69;51.73;102760.94;5050002;28;20072;-80
2023/01/22 01:15:39;;;;;;;0.50;0.40;;;;;;;17.69;51.94;102765.50;5027383;28;20460;-80
2023/01/22 01:18:05;;;;;;;0.57;0.50;;;;;;;17.71;51.87;102749.94;5028749;28;20037;-81
2023/01/22 01:20:30;;;;;;;0.43;0.43;;;;;;;17.71;51.65;102767.00;5028889;28;20032;-81
2023/01/22 01:22:56;;;;;;;0.52;0.50;;;;;;;17.73;51.66;102762.28;5028286;28;20021;-81
2023/01/22 01:25:21;;;;;;;0.40;0.40;;;;;;;17.68;52.03;102759.25;4994181;28;20036;-81
2023/01/22 01:27:47;;;;;;;0.45;0.45;;;;;;;17.70;51.83;102751.81;5028019;28;20025;-80
2023/01/22 01:30:13;;;;;;;0.63;0.40;;;;;;;17.72;51.92;102759.75;5010736;28;20044;-81
2023/01/22 01:32:38;;;;;;;0.40;0.40;;;;;;;17.74;51.75;102757.69;5026357;28;20029;-81
2023/01/22 01:35:04;;;;;;;0.65;0.40;;;;;;;17.72;51.68;102755.16;5028301;28;20075;-80
2023/01/22 01:37:30;;;;;;;0.30;0.30;;;;;;;17.71;51.92;102753.47;5026241;28;20029;-81
2023/01/22 01:39:55;;;;;;;0.55;0.40;;;;;;;17.73;51.78;102756.88;5010607;28;20029;-80
2023/01/22 01:42:27;;;;;;;0.40;0.40;;;;;;;17.74;51.76;102755.84;5010419;28;20041;-80
2023/01/22 01:45:29;;;;;;;0.40;0.40;;;;;;;17.72;51.72;102759.75;5027849;28;20079;-80
2023/01/22 01:48:00;;;;;;;0.50;0.50;;;;;;;17.69;51.82;102755.53;4927796;29;20128;-80
2023/01/22 01:50:26;;;;;;;0.45;0.45;;;;;;;17.69;52.00;102768.22;4994198;28;20116;-80
2023/01/22 01:52:51;;;;;;;0.30;0.30;;;;;;;17.71;51.53;102764.28;5027690;28;20388;-80
2023/01/22 01:55:20;;;;;;;0.40;0.40;;;;;;;17.73;51.71;102767.69;4993296;28;20021;-80
2023/01/22 01:57:46;;;;;;;0.32;0.30;;;;;;;17.73;51.77;102764.97;5010221;28;20025;-82
2023/01/22 02:00:12;;;;;;;0.43;0.30;;;;;;;17.72;51.95;102763.28;5027832;28;20386;-81
2023/01/22 02:02:37;;;;;;;0.40;0.40;;;;;;;17.70;51.79;102768.03;5009979;28;20383;-80
2023/01/22 02:05:09;;;;;;;0.40;0.40;;;;;;;17.73;51.76;102764.13;5027129;28;20360;-80
2023/01/22 02:07:35;;;;;;;0.40;0.40;;;;;;;17.73;51.74;102764.13;4993341;28;20029;-81
2023/01/22 02:10:03;;;;;;;0.40;0.40;;;;;;;17.74;51.68;102761.25;5009898;28;20022;-80
2023/01/22 02:12:30;;;;;;;0.70;0.40;;;;;;;17.73;51.61;102775.81;4977755;28;20038;-80
2023/01/22 02:14:55;;;;;;;0.40;0.40;;;;;;;17.74;51.69;102768.53;5027628;28;20040;-81
2023/01/22 02:17:21;;;;;;;0.60;0.40;;;;;;;17.74;51.97;102773.94;5027662;28;20471;-80
2023/01/22 02:19:47;;;;;;;0.57;0.40;;;;;;;17.75;51.75;102768.34;5007248;28;20065;-81
2023/01/22 02:22:20;;;;;;;0.30;0.30;;;;;;;17.74;51.71;102766.66;5009433;28;20057;-81
2023/01/22 02:24:46;;;;;;;0.35;0.35;;;;;;;17.70;51.98;102765.34;4993471;28;20479;-80
2023/01/22 02:27:12;;;;;;;0.50;0.40;;;;;;;17.75;51.57;102768.34;5024653;28;20117;-80
2023/01/22 02:29:37;;;;;;;0.70;0.40;;;;;;;17.73;51.79;102762.28;5027147;28;20143;-80
2023/01/22 02:32:03;;;;;;;0.38;0.38;;;;;;;17.75;51.96;102771.06;5026985;28;20045;-80
2023/01/22 02:34:29;;;;;;;0.30;0.30;;;;;;;17.74;51.84;102768.53;5008354;28;20087;-80
2023/01/22 02:36:54;;;;;;;0.40;0.40;;;;;;;17.73;51.85;102764.97;5027595;28;20025;-80
2023/01/22 02:39:20;;;;;;;0.30;0.30;;;;;;;17.74;51.85;102769.34;5026715;28;20503;-80
2023/01/22 02:41:46;;;;;;;0.40;0.40;;;;;;;17.71;52.00;102768.88;5009790;28;20033;-80
2023/01/22 02:44:11;;;;;;;0.40;0.40;;;;;;;17.73;51.88;102767.69;5009818;28;20089;-81
2023/01/22 02:46:37;;;;;;;0.57;0.43;;;;;;;17.74;51.80;102766.66;5027337;28;20029;-80
2023/01/22 02:49:03;;;;;;;0.40;0.40;;;;;;;17.74;51.91;102765.81;5027177;28;20408;-80
2023/01/22 02:51:29;;;;;;;0.30;0.30;;;;;;;17.74;51.90;102772.06;5026493;28;20105;-81
2023/01/22 02:53:54;;;;;;;0.50;0.40;;;;;;;17.74;52.01;102769.34;5027481;28;20026;-81
2023/01/22 02:56:23;;;;;;;0.30;0.30;;;;;;;17.71;52.04;102774.28;5012075;28;20553;-80
2023/01/22 02:58:49;;;;;;;0.30;0.30;;;;;;;17.75;51.74;102787.28;5031101;28;20036;-80
2023/01/22 03:01:22;;;;;;;0.60;0.40;;;;;;;17.71;51.89;102774.28;5030747;28;20482;-80
2023/01/22 03:03:52;;;;;;;0.38;0.38;;;;;;;17.73;51.91;102780.34;5013304;28;20602;-80
2023/01/22 03:06:21;;;;;;;0.30;0.30;;;;;;;17.72;51.87;102776.81;5030863;28;20082;-80
2023/01/22 03:08:52;;;;;;;0.77;0.60;;;;;;;17.70;52.07;102776.16;5030561;28;20548;-80
2023/01/22 03:11:17;;;;;;;0.40;0.40;;;;;;;17.73;51.68;102783.91;5030505;28;20025;-80
2023/01/22 03:21:58;;;;;;;0.30;0.30;;;;;;;17.71;52.00;102801.31;5028599;28;20048;-80
2023/01/22 03:24:24;;;;;;;0.80;0.40;;;;;;;17.70;52.00;102797.78;5029213;28;20026;-80
2023/01/22 03:26:50;;;;;;;0.40;0.40;;;;;;;17.71;51.84;102795.91;5028608;28;20475;-80
2023/01/22 03:29:15;;;;;;;0.70;0.30;;;;;;;17.72;51.75;102793.03;5030084;28;20059;-80
2023/01/22 03:31:41;;;;;;;0.55;0.30;;;;;;;17.74;51.60;102796.41;5029773;28;20506;-80
2023/01/22 03:34:07;;;;;;;0.65;0.40;;;;;;;17.71;52.07;102801.31;5030611;28;20467;-80
2023/01/22 03:36:32;;;;;;;0.50;0.40;;;;;;;17.72;51.66;102795.75;5013082;28;20057;-82
2023/01/22 03:38:58;;;;;;;0.30;0.30;;;;;;;17.71;51.71;102801.31;5030112;28;20029;-82
2023/01/22 03:41:23;;;;;;;0.40;0.40;;;;;;;17.71;51.89;102791.34;4993623;28;20033;-82
2023/01/22 03:43:49;;;;;;;0.40;0.40;;;;;;;17.72;51.85;102795.75;5012655;28;20542;-81
2023/01/22 03:46:16;;;;;;;0.30;0.30;;;;;;;17.69;51.95;102798.78;5030492;28;20040;-80
2023/01/22 03:48:42;;;;;;;0.32;0.32;;;;;;;17.72;51.80;102803.84;5030085;28;20056;-80
2023/01/22 03:51:14;;;;;;;0.30;0.30;;;;;;;17.73;51.74;102810.97;5011904;28;20025;-80
2023/01/22 03:53:40;;;;;;;0.32;0.32;;;;;;;17.72;51.96;102808.44;5012374;28;20467;-82
2023/01/22 03:56:08;;;;;;;0.30;0.30;;;;;;;17.69;52.05;102804.19;5029928;28;20029;-82
2023/01/22 03:58:34;;;;;;;0.30;0.30;;;;;;;17.71;51.78;102806.72;5012407;28;20034;-81
2023/01/22 04:01:02;;;;;;;1.02;0.40;;;;;;;17.69;51.94;102809.59;5030043;28;20069;-82
2023/01/22 04:03:27;;;;;;;0.30;0.30;;;;;;;17.68;51.81;102807.06;5029382;28;20347;-82
2023/01/22 04:05:53;;;;;;;0.45;0.40;;;;;;;17.69;52.00;102809.59;5029893;28;20025;-81
2023/01/22 04:08:19;;;;;;;0.30;0.30;;;;;;;17.70;51.87;102802.34;5012303;28;20071;-80
2023/01/22 04:10:45;;;;;;;0.30;0.30;;;;;;;17.70;51.92;102811.31;5012245;28;20034;-81
2023/01/22 04:13:11;;;;;;;0.60;0.40;;;;;;;17.68;51.98;102810.66;5029582;28;20044;-80
2023/01/22 04:15:36;;;;;;;0.63;0.40;;;;;;;17.71;51.83;102817.53;5011989;28;20030;-80
2023/01/22 04:18:02;;;;;;;0.40;0.40;;;;;;;17.70;51.71;102816.72;5011999;28;20479;-82
2023/01/22 04:20:28;;;;;;;0.30;0.30;;;;;;;17.67;52.14;102814.34;5011694;28;20025;-82
2023/01/22 04:22:53;;;;;;;0.40;0.40;;;;;;;17.71;51.73;102809.44;5029541;28;20049;-81
2023/01/22 04:25:19;;;;;;;0.30;0.30;;;;;;;17.70;52.03;102811.31;5029461;28;20034;-81
2023/01/22 04:27:45;;;;;;;0.50;0.50;;;;;;;17.70;52.22;102811.31;5009905;28;20041;-80
2023/01/22 04:30:11;;;;;;;0.32;0.30;;;;;;;17.66;52.21;102809.97;5029958;28;20151;-80
2023/01/22 04:32:36;;;;;;;0.40;0.40;;;;;;;17.68;52.40;102810.66;5011995;28;20414;-80
2023/01/22 04:35:03;;;;;;;0.43;0.30;;;;;;;17.67;52.06;102816.22;5012132;28;20036;-81
2023/01/22 04:37:29;;;;;;;0.40;0.40;;;;;;;17.68;52.06;102815.19;5011656;28;20033;-81
2023/01/22 04:39:55;;;;;;;0.43;0.40;;;;;;;17.67;51.89;102817.06;5029156;28;20041;-81
2023/01/22 04:42:21;;;;;;;0.30;0.30;;;;;;;17.70;51.95;102816.72;5029342;28;20389;-80
2023/01/22 04:44:46;;;;;;;0.60;0.50;;;;;;;17.67;52.28;102808.94;5029774;28;20533;-80
2023/01/22 04:47:12;;;;;;;0.30;0.30;;;;;;;17.66;51.94;102807.28;5028683;28;20077;-81
2023/01/22 04:49:38;;;;;;;0.50;0.40;;;;;;;17.70;51.96;102822.13;5028928;28;20033;-81
2023/01/22 04:52:03;;;;;;;0.50;0.32;;;;;;;17.69;51.97;102820.41;5011220;28;20032;-80
2023/01/22 04:54:29;;;;;;;0.30;0.30;;;;;;;17.69;51.98;102814.19;5028967;28;20101;-80
2023/01/22 04:56:55;;;;;;;0.30;0.30;;;;;;;17.68;52.02;102821.47;5028889;28;20034;-81
2023/01/22 04:59:20;;;;;;;0.40;0.40;;;;;;;17.67;51.91;102817.06;5028645;28;20113;-81
2023/01/22 05:01:49;;;;;;;0.40;0.40;;;;;;;17.66;52.04;102815.38;5030565;28;20071;-81
2023/01/22 05:04:15;;;;;;;0.30;0.30;;;;;;;17.65;51.80;102798.31;5027565;28;20036;-81
2023/01/22 05:06:41;;;;;;;0.40;0.40;;;;;;;17.67;52.04;102800.00;5031028;28;20539;-80
2023/01/22 05:09:06;;;;;;;0.50;0.40;;;;;;;17.65;52.00;102808.28;5050924;28;20025;-80
2023/01/22 05:11:32;;;;;;;0.30;0.30;;;;;;;17.68;51.88;102813.34;5051779;28;20020;-80
2023/01/22 05:13:58;;;;;;;0.40;0.40;;;;;;;17.66;51.87;102812.69;5056068;28;20351;-80
2023/01/22 05:16:23;;;;;;;0.55;0.40;;;;;;;17.66;51.92;102812.69;5049832;28;20033;-80
2023/01/22 05:18:49;;;;;;;0.50;0.30;;;;;;;17.68;51.77;102818.75;5059713;28;20020;-80
2023/01/22 05:21:15;;;;;;;0.47;0.40;;;;;;;17.65;51.89;102819.09;5052718;28;20422;-80
2023/01/22 05:23:42;;;;;;;0.30;0.30;;;;;;;17.66;51.97;102815.38;5046783;28;20048;-80
2023/01/22 05:26:08;;;;;;;0.40;0.40;;;;;;;17.67;52.03;102822.47;5049380;28;20024;-80
2023/01/22 05:28:34;;;;;;;0.30;0.30;;;;;;;17.66;52.10;102815.38;5048652;28;20025;-80
2023/01/22 05:30:59;;;;;;;0.30;0.30;;;;;;;17.67;52.02;102822.47;5048454;28;20095;-81
2023/01/22 05:33:28;;;;;;;0.38;0.30;;;;;;;17.67;51.97;102827.88;5047773;28;20549;-81
2023/01/22 05:36:00;;;;;;;0.77;0.30;;;;;;;17.67;52.07;102818.94;5046979;28;20037;-81
2023/01/22 05:38:27;;;;;;;0.38;0.38;;;;;;;17.65;52.25;102819.09;5047878;28;20055;-81
2023/01/22 05:40:52;;;;;;;0.82;0.40;;;;;;;17.66;51.97;102826.22;5047979;28;20028;-81
2023/01/22 05:43:18;;;;;;;0.30;0.30;;;;;;;17.66;52.22;102809.97;5047634;28;20383;-80
2023/01/22 05:45:44;;;;;;;0.35;0.35;;;;;;;17.64;51.98;102820.09;5046711;28;20382;-80
2023/01/22 05:48:09;;;;;;;0.40;0.40;;;;;;;17.64;52.10;102814.69;5048019;28;20045;-82
2023/01/22 05:50:35;;;;;;;0.32;0.30;;;;;;;17.64;52.21;102817.41;5026559;28;20028;-82
2023/01/22 05:53:01;;;;;;;0.52;0.32;;;;;;;17.65;52.11;102825.34;5047790;28;20474;-80
2023/01/22 05:55:27;;;;;;;0.40;0.40;;;;;;;17.63;52.17;102824.69;5036673;28;20032;-80
2023/01/22 05:57:53;;;;;;;0.30;0.30;;;;;;;17.67;52.03;102838.69;5047954;28;20112;-80
2023/01/22 06:00:18;;;;;;;0.68;0.30;;;;;;;17.65;52.12;102833.47;5046247;28;20032;-81
2023/01/22 06:02:44;;;;;;;0.50;0.50;;;;;;;17.65;52.28;102840.72;5046356;28;20766;-80
2023/01/22 06:05:10;;;;;;;0.40;0.40;;;;;;;17.63;52.32;102840.91;5045830;28;20029;-80
2023/01/22 06:07:36;;;;;;;0.30;0.30;;;;;;;17.65;52.12;102851.56;5047568;28;20082;-80
2023/01/22 06:10:01;;;;;;;0.60;0.30;;;;;;;17.65;52.15;102851.56;5047687;28;20029;-80
2023/01/22 06:12:27;;;;;;;0.40;0.40;;;;;;;17.66;52.12;102850.53;5044388;28;20438;-80
2023/01/22 06:14:53;;;;;;;0.38;0.38;;;;;;;17.64;51.99;102849.84;5026831;28;20071;-80
2023/01/22 06:17:19;;;;;;;0.40;0.40;;;;;;;17.62;52.20;102844.63;5027055;28;20193;-81
2023/01/22 06:19:45;;;;;;;0.40;0.40;;;;;;;17.62;52.21;102857.31;5025924;28;20510;-80
2023/01/22 06:22:10;;;;;;;0.40;0.40;;;;;;;17.63;51.93;102854.44;5027093;28;20033;-80
2023/01/22 06:24:36;;;;;;;0.50;0.40;;;;;;;17.63;51.92;102857.13;5027552;28;20033;-80
2023/01/22 06:27:02;;;;;;;0.40;0.40;;;;;;;17.62;52.09;102860.00;5027827;28;20039;-81
2023/01/22 06:29:28;;;;;;;0.75;0.47;;;;;;;17.65;51.83;102846.97;5008731;28;20037;-80
2023/01/22 06:31:55;;;;;;;0.40;0.40;;;;;;;17.64;51.90;102844.44;5026742;28;20025;-80
2023/01/22 06:34:21;;;;;;;0.55;0.45;;;;;;;17.63;52.13;102846.31;5009655;28;20036;-80
2023/01/22 06:36:46;;;;;;;0.35;0.35;;;;;;;17.63;51.89;102853.59;5027424;28;20025;-80
2023/01/22 06:39:12;;;;;;;0.40;0.40;;;;;;;17.60;52.05;102859.34;5026707;28;20527;-80
2023/01/22 06:41:37;;;;;;;0.75;0.50;;;;;;;17.63;51.97;102853.59;5027041;28;20022;-80
2023/01/22 06:44:03;;;;;;;0.28;0.28;;;;;;;17.62;52.11;102868.13;5027177;28;20029;-81
2023/01/22 06:46:29;;;;;;;0.50;0.50;;;;;;;17.63;52.01;102870.66;5027452;28;20807;-80
2023/01/22 06:48:55;;;;;;;0.40;0.30;;;;;;;17.61;52.06;102867.28;5009520;28;20021;-81
2023/01/22 06:51:20;;;;;;;0.40;0.40;;;;;;;17.60;52.23;102867.44;5026835;28;20031;-80
2023/01/22 06:53:46;;;;;;;0.40;0.40;;;;;;;17.61;52.01;102871.84;5027120;28;20049;-81
2023/01/22 06:56:12;;;;;;;0.63;0.50;;;;;;;17.57;52.19;102875.91;5026999;28;20030;-81
2023/01/22 06:58:37;;;;;;;0.43;0.40;;;;;;;17.62;52.13;102878.94;5026817;28;20029;-81
2023/01/22 07:01:04;;;;;;;0.32;0.32;;;;;;;17.61;52.13;102877.25;5026965;28;20055;-80
2023/01/22 07:03:30;;;;;;;0.50;0.50;;;;;;;17.62;51.93;102881.63;5007931;28;20459;-80
2023/01/22 07:05:59;;;;;;;0.60;0.50;;;;;;;17.61;52.10;102879.97;5027058;28;20026;-80
2023/01/22 07:08:25;;;;;;;0.50;0.40;;;;;;;17.61;51.95;102885.38;5025350;28;20144;-81
2023/01/22 07:10:51;;;;;;;0.75;0.50;;;;;;;17.59;52.19;102890.09;5027038;28;20033;-81
2023/01/22 07:13:17;;;;;;;0.30;0.30;;;;;;;17.62;51.96;102895.16;5026791;28;20042;-81
2023/01/22 07:15:42;;;;;;;0.40;0.40;;;;;;;17.60;51.99;102897.19;5025770;28;20634;-80
2023/01/22 07:18:09;;;;;;;0.30;0.30;;;;;;;17.62;52.04;102898.69;5026937;28;20042;-80
2023/01/22 07:20:35;;;;;;;0.40;0.40;;;;;;;17.62;52.06;102892.44;5026555;28;20025;-80
2023/01/22 07:23:00;;;;;;;0.47;0.30;;;;;;;17.62;52.27;102895.16;5026801;28;20028;-80
2023/01/22 07:25:26;;;;;;;0.40;0.40;;;;;;;17.63;51.89;102899.56;5026870;28;20946;-80
2023/01/22 07:27:58;;;;;;;0.30;0.30;;;;;;;17.62;52.15;102900.56;5026337;28;20077;-80
2023/01/22 07:30:24;;;;;;;0.30;0.30;;;;;;;17.62;52.07;102905.97;5027078;28;20075;-80
2023/01/22 07:32:49;;;;;;;0.35;0.35;;;;;;;17.62;52.16;102900.56;5026797;28;20030;-80
2023/01/22 07:35:15;;;;;;;0.40;0.40;;;;;;;17.60;51.87;102900.75;5026419;28;20117;-80
2023/01/22 07:37:41;;;;;;;0.55;0.55;;;;;;;17.57;52.19;102908.34;5009300;28;20022;-80
2023/01/22 07:40:07;;;;;;;0.52;0.50;;;;;;;17.61;51.89;102915.13;5026932;28;20040;-81
2023/01/22 07:42:32;;;;;;;0.63;0.40;;;;;;;17.58;52.35;102901.94;5029141;28;20053;-80
2023/01/22 07:44:58;;;;;;;0.60;0.50;;;;;;;17.59;52.24;102898.19;5030534;28;20112;-80
2023/01/22 07:47:24;;;;;;;0.35;0.35;;;;;;;17.59;52.32;102903.63;5029734;28;20504;-81
2023/01/22 07:49:49;;;;;;;0.63;0.50;;;;;;;17.58;52.27;102899.25;5030357;28;20502;-80
2023/01/22 07:52:15;;;;;;;0.68;0.50;;;;;;;17.59;52.39;102893.66;5030052;28;20037;-80
2023/01/22 07:54:41;;;;;;;0.50;0.50;;;;;;;17.58;51.91;102888.41;5030310;28;20469;-81
2023/01/22 07:57:07;;;;;;;0.60;0.60;;;;;;;17.58;51.98;102893.84;5030233;28;20029;-80
2023/01/22 07:59:33;;;;;;;0.40;0.40;;;;;;;17.60;52.27;102902.59;5030681;28;20152;-80
2023/01/22 08:01:59;;;;;;;0.40;0.40;;;;;;;17.60;52.08;102899.91;5030018;28;20034;-81
2023/01/22 08:04:25;;;;;;;0.50;0.50;;;;;;;17.59;52.02;102896.38;5012164;28;20056;-81
2023/01/22 08:06:51;;;;;;;0.50;0.50;;;;;;;17.60;52.07;102902.59;5010323;28;20027;-81
2023/01/22 08:09:23;;;;;;;0.50;0.50;;;;;;;17.62;51.86;102900.56;5029821;28;20041;-81
2023/01/22 08:11:49;;;;;;;0.50;0.50;;;;;;;17.61;51.89;102898.91;5027857;28;20487;-81
2023/01/22 08:14:15;;;;;;;0.50;0.50;;;;;;;17.58;52.20;102901.94;5029714;28;20160;-81
2023/01/22 08:16:40;;;;;;;0.70;0.70;;;;;;;17.59;52.05;102900.91;5029890;28;20578;-80
2023/01/22 08:19:09;;;;;;;0.60;0.52;;;;;;;17.59;52.05;102906.31;5029590;28;20017;-81
2023/01/22 08:21:35;;;;;;;0.50;0.50;;;;;;;17.60;52.04;102905.31;5029418;28;20053;-80
2023/01/22 08:24:00;;;;;;;0.65;0.40;;;;;;;17.60;52.10;102910.72;5012161;28;20021;-81
2023/01/22 08:26:26;;;;;;;0.65;0.65;;;;;;;17.57;52.21;102911.06;4986242;28;20022;-81
2023/01/22 08:28:52;;;;;;;0.50;0.50;;;;;;;17.57;52.04;102906.47;5029736;28;20541;-80
2023/01/22 08:31:17;;;;;;;0.65;0.60;;;;;;;17.59;51.97;102909.88;5028958;28;20578;-81
2023/01/22 08:33:43;;;;;;;0.60;0.60;;;;;;;17.58;52.22;102915.47;5029354;28;20458;-81
2023/01/22 08:36:09;;;;;;;0.65;0.60;;;;;;;17.58;51.97;102920.88;5029034;28;20021;-81
2023/01/22 08:38:34;;;;;;;0.60;0.60;;;;;;;17.61;51.91;102921.38;5029340;28;20037;-81
2023/01/22 08:41:00;;;;;;;0.75;0.60;;;;;;;17.60;51.96;102925.06;5029089;28;20078;-80
2023/01/22 08:43:26;;;;;;;1.10;0.60;;;;;;;17.56;52.21;102925.59;5029037;28;20824;-80
2023/01/22 08:45:54;;;;;;;0.63;0.63;;;;;;;17.58;51.97;102927.09;5011672;28;20025;-81
2023/01/22 08:48:20;;;;;;;0.70;0.70;;;;;;;17.58;52.12;102928.97;5011563;28;20360;-81
2023/01/22 08:50:46;;;;;;;0.60;0.60;;;;;;;17.56;52.26;102931.00;5012767;28;20604;-80
2023/01/22 08:53:14;;;;;;;0.57;0.57;;;;;;;17.59;52.09;102928.81;5011691;28;20076;-81
2023/01/22 08:55:40;;;;;;;0.65;0.63;;;;;;;17.60;52.27;102935.06;5032340;28;20526;-80
2023/01/22 08:58:05;;;;;;;0.90;0.73;;;;;;;17.57;52.03;102928.13;5034011;28;20028;-80
2023/01/22 09:00:31;;;;;;;0.68;0.68;;;;;;;17.57;51.97;102927.28;5037960;28;20032;-80
2023/01/22 09:02:58;;;;;;;0.68;0.65;;;;;;;17.59;52.11;102938.75;5027926;28;20081;-81
2023/01/22 09:05:24;;;;;;;0.82;0.82;;;;;;;17.58;52.00;102928.97;5051860;28;20029;-81
2023/01/22 09:07:50;;;;;;;0.65;0.65;;;;;;;17.60;52.03;102935.88;5031079;28;20032;-81
2023/01/22 09:10:16;;;;;;;0.60;0.60;;;;;;;17.57;52.14;102933.53;5029645;28;20029;-80
2023/01/22 09:12:42;;;;;;;0.95;0.80;;;;;;;17.58;52.06;102934.38;5029075;28;20483;-80
2023/01/22 09:15:08;;;;;;;0.70;0.70;;;;;;;17.61;52.18;102939.47;5028646;28;20368;-80
2023/01/22 09:17:33;;;;;;;1.08;0.82;;;;;;;17.58;52.13;102935.22;5010969;28;20044;-80
2023/01/22 09:19:59;;;;;;;0.75;0.75;;;;;;;17.55;52.45;102938.25;4994470;28;20040;-80
2023/01/22 09:22:25;;;;;;;0.70;0.70;;;;;;;17.58;52.20;102942.50;5028267;28;20394;-81
2023/01/22 09:24:50;;;;;;;0.70;0.70;;;;;;;17.55;52.01;102940.13;5028411;28;20029;-81
2023/01/22 09:27:16;;;;;;;0.98;0.88;;;;;;;17.60;52.17;102956.69;5010252;28;20427;-81
2023/01/22 09:29:43;;;;;;;0.80;0.70;;;;;;;17.58;52.20;102958.72;5024591;28;20030;-81
2023/01/22 09:32:09;;;;;;;0.60;0.60;;;;;;;17.59;52.28;102960.41;5028459;28;20021;-81
2023/01/22 09:34:35;;;;;;;1.05;0.80;;;;;;;17.61;52.09;102963.78;5028009;28;20395;-81
2023/01/22 09:37:04;;;;;;;0.90;0.80;;;;;;;17.58;52.26;102953.31;5027380;28;20040;-81
2023/01/22 09:39:31;;;;;;;0.68;0.68;;;;;;;17.60;52.08;102956.69;5008758;28;20110;-81
2023/01/22 09:41:56;;;;;;;0.95;0.85;;;;;;;17.61;52.14;102959.22;5026609;28;20026;-81
2023/01/22 09:44:32;;;;;;;0.60;0.60;;;;;;;17.60;52.24;102951.28;4992338;28;20022;-81
2023/01/22 09:47:32;;;;;;;0.60;0.60;;;;;;;17.58;52.13;102958.72;5028102;28;20053;-80
2023/01/22 09:50:17;;;;;;;0.90;0.77;;;;;;;17.59;52.08;102961.25;5026541;28;20029;-81
2023/01/22 09:52:48;;;;;;;0.70;0.70;;;;;;;17.58;52.08;102948.75;5005918;28;20061;-81
2023/01/22 09:55:15;;;;;;;0.70;0.70;;;;;;;17.57;52.24;102955.16;5020863;28;20030;-81
2023/01/22 09:57:46;;;;;;;1.13;0.77;;;;;;;17.61;52.22;102958.38;5009899;28;20488;-81
2023/01/22 10:00:15;;;;;;;1.70;0.80;;;;;;;17.60;52.18;102962.09;5024373;28;20379;-81
2023/01/22 10:02:47;;;;;;;0.70;0.65;;;;;;;17.59;52.12;102960.41;5025577;28;20049;-81
2023/01/22 10:05:22;;;;;;;0.75;0.75;;;;;;;17.59;52.39;102955.84;5009838;28;20464;-80
2023/01/22 10:08:25;;;;;;;0.90;0.90;;;;;;;17.55;52.31;102959.91;5027391;28;20100;-80
2023/01/22 10:10:51;;;;;;;1.13;1.00;;;;;;;17.59;52.26;102954.97;4911987;29;20055;-80
2023/01/22 10:13:43;;;;;;;0.50;0.50;;;;;;;17.58;52.27;102951.44;5001565;28;20045;-80
2023/01/22 10:16:08;;;;;;;0.82;0.80;;;;;;;17.58;52.30;102950.59;5040769;28;20037;-80
2023/01/22 10:19:12;;;;;;;0.98;0.80;;;;;;;17.59;52.19;102949.56;5046347;28;20615;-80
2023/01/22 10:22:00;;;;;;;0.70;0.70;;;;;;;17.61;52.21;102947.56;5045508;28;20024;-82
2023/01/22 10:24:26;;;;;;;0.82;0.73;;;;;;;17.59;52.09;102960.41;5031497;28;20056;-82
2023/01/22 10:26:53;;;;;;;1.15;0.80;;;;;;;17.60;52.20;102968.34;5012051;28;20451;-81
2023/01/22 10:29:29;;;;;;;0.75;0.75;;;;;;;17.62;51.98;102960.88;5045622;28;20052;-81
2023/01/22 10:31:58;;;;;;;0.75;0.75;;;;;;;17.61;52.22;102959.22;5045922;28;20036;-80
2023/01/22 10:34:34;;;;;;;0.85;0.82;;;;;;;17.59;52.18;102965.81;5046661;28;20032;-80
2023/01/22 10:37:14;;;;;;;0.95;0.70;;;;;;;17.61;51.99;102955.69;5047340;28;20440;-80
2023/01/22 10:39:43;;;;;;;1.05;0.95;;;;;;;17.60;52.31;102962.09;5045973;28;20029;-81
2023/01/22 10:42:20;;;;;;;0.80;0.80;;;;;;;17.61;52.19;102952.97;5041521;28;20248;-80
2023/01/22 10:44:46;;;;;;;0.85;0.85;;;;;;;17.59;52.28;102949.56;5042657;28;20139;-81
2023/01/22 10:47:19;;;;;;;0.90;0.90;;;;;;;17.60;52.04;102948.56;5044891;28;20112;-81
2023/01/22 10:49:45;;;;;;;0.90;0.90;;;;;;;17.61;52.16;102942.16;5045218;28;20082;-81
2023/01/22 10:52:31;;;;;;;0.80;0.80;;;;;;;17.60;52.27;102937.75;5045404;28;20029;-81
2023/01/22 10:54:57;;;;;;;0.90;0.82;;;;;;;17.59;52.35;102941.47;5045780;28;20513;-81
2023/01/22 10:57:32;;;;;;;0.80;0.80;;;;;;;17.61;52.26;102947.56;5044829;28;20033;-81
2023/01/22 11:00:19;;;;;;;0.80;0.80;;;;;;;17.61;52.17;102944.88;5040632;28;20421;-81
2023/01/22 11:02:49;;;;;;;1.00;1.00;;;;;;;17.62;52.21;102938.41;5041910;28;20413;-81
2023/01/22 11:05:22;;;;;;;1.05;0.88;;;;;;;17.59;52.22;102939.63;5045131;28;20387;-81
2023/01/22 11:07:53;;;;;;;1.25;0.98;;;;;;;17.60;52.23;102940.47;5045421;28;20544;-82
2023/01/22 11:10:50;;;;;;;0.80;0.80;;;;;;;17.60;52.20;102935.88;5045722;28;20044;-81
2023/01/22 11:13:27;;;;;;;0.93;0.90;;;;;;;17.61;52.16;102931.34;5043586;28;20067;-82
2023/01/22 11:16:25;;;;;;;0.70;0.70;;;;;;;17.60;52.17;102935.88;5026821;28;20363;-82
2023/01/22 11:19:19;;;;;;;0.65;0.65;;;;;;;17.62;52.22;102927.59;5005642;28;20045;-81
2023/01/22 11:21:46;;;;;;;0.98;0.90;;;;;;;17.62;52.29;102933.00;5049178;28;20127;-81
2023/01/22 11:24:34;;;;;;;0.73;0.73;;;;;;;17.63;52.26;102937.41;5050726;28;20033;-81
2023/01/22 11:27:33;;;;;;;1.17;0.50;;;;;;;17.62;52.18;102931.16;5027116;28;20071;-82
2023/01/22 11:30:12;;;;;;;0.70;0.70;;;;;;;17.62;52.29;102941.13;5033376;28;20556;-81
2023/01/22 11:33:15;;;;;;;0.75;0.70;;;;;;;17.62;52.41;102943.84;5005235;28;20025;-81
2023/01/22 11:35:53;;;;;;;1.25;1.00;;;;;;;17.61;52.21;102943.00;5034921;28;20079;-80
2023/01/22 11:38:35;;;;;;;1.98;0.70;;;;;;;17.61;52.40;102936.75;5051442;28;20511;-80